Time;durP1;ratioP1;P1;durP2;ratioP2;P2;SDS_P1;SDS_P2;PMS_P1;PMS_P2;Temp;Humidity;BMP_temperature;BMP_pressure;BME280_temperature;BME280_humidity;BME280_pressure;Samples;Min_cycle;Max_cycle;Signal;HPM_P1;HPM_P2
2022/11/08 00:03:40;;;;;;;;;;;;;;;15.87;77.50;100145.09;5054054;28;745;-63
2022/11/08 00:14:17;;;;;;;;;;;;;;;15.88;77.67;100148.69;5054122;28;760;-63
2022/11/08 00:16:42;;;;;;;;;;;;;;;15.87;77.63;100161.66;5053566;28;987;-63
2022/11/08 00:19:07;;;;;;;;;;;;;;;15.88;77.43;100159.72;5053526;28;1902;-63
2022/11/08 00:21:33;;;;;;;;;;;;;;;15.86;77.49;100157.28;5053761;28;971;-63
2022/11/08 00:23:58;;;;;;;;;;;;;;;15.87;77.36;100158.09;5053555;28;801;-63
2022/11/08 00:26:23;;;;;;;;;;;;;;;15.87;77.79;100164.41;5053392;28;951;-63
2022/11/08 00:28:48;;;;;;;;;;;;;;;15.87;77.53;100158.91;5053397;28;1223;-63
2022/11/08 00:31:13;;;;;;;;;;;;;;;15.87;77.64;100158.91;5053548;28;999;-63
2022/11/08 00:33:38;;;;;;;;;;;;;;;15.86;77.50;100156.47;5053461;28;919;-64
2022/11/08 00:36:04;;;;;;;;;;;;;;;15.86;77.45;100164.75;5053273;28;967;-63
2022/11/08 00:38:29;;;;;;;;;;;;;;;15.87;77.38;100155.31;5053173;28;1897;-63
2022/11/08 00:40:54;;;;;;;;;;;;;;;15.87;77.47;100158.09;5053385;28;1026;-63
2022/11/08 00:43:19;;;;;;;;;;;;;;;15.88;77.35;100156.97;5053396;28;999;-63
2022/11/08 00:45:45;;;;;;;;;;;;;;;15.87;77.70;100150.63;5053042;28;951;-63
2022/11/08 00:48:10;;;;;;;;;;;;;;;15.87;78.25;100158.09;5053282;28;773;-63
2022/11/08 00:50:38;;;;;;;;;;;;;;;15.86;77.54;100151.75;5053119;28;1187;-63
2022/11/08 00:53:03;;;;;;;;;;;;;;;15.87;77.31;100160.84;5052698;28;876;-63
2022/11/08 00:55:28;;;;;;;;;;;;;;;15.86;77.51;100154.50;5053118;28;971;-64
2022/11/08 00:57:54;;;;;;;;;;;;;;;15.87;77.62;100155.31;5052946;28;804;-63
2022/11/08 01:00:19;;;;;;;;;;;;;;;15.87;77.48;100153.38;5052937;28;1949;-63
2022/11/08 01:02:44;;;;;;;;;;;;;;;15.86;77.45;100150.94;5053126;28;1034;-63
2022/11/08 01:05:09;;;;;;;;;;;;;;;15.86;77.32;100156.47;5053104;28;802;-63
2022/11/08 01:07:34;;;;;;;;;;;;;;;15.85;77.92;100155.66;5052685;28;920;-63
2022/11/08 01:09:59;;;;;;;;;;;;;;;15.85;77.54;100149.31;5052972;28;1207;-63
2022/11/08 01:12:25;;;;;;;;;;;;;;;15.85;77.67;100150.13;5053060;28;789;-64
2022/11/08 01:14:50;;;;;;;;;;;;;;;15.87;77.56;100152.56;5053067;28;885;-63
2022/11/08 01:17:15;;;;;;;;;;;;;;;15.84;77.80;100145.75;5052668;28;1035;-63
2022/11/08 01:19:40;;;;;;;;;;;;;;;15.85;77.73;100138.28;5052835;28;1894;-62
2022/11/08 01:22:05;;;;;;;;;;;;;;;15.85;77.50;100144.59;5052810;28;1083;-63
2022/11/08 01:24:30;;;;;;;;;;;;;;;15.85;77.49;100133.56;5052938;28;784;-63
2022/11/08 01:26:55;;;;;;;;;;;;;;;15.86;77.43;100145.41;5052562;28;900;-64
2022/11/08 01:29:21;;;;;;;;;;;;;;;15.85;77.61;100139.09;5052658;28;1212;-63
2022/11/08 01:31:46;;;;;;;;;;;;;;;15.86;77.34;100134.38;5052805;28;995;-63
2022/11/08 01:34:11;;;;;;;;;;;;;;;15.84;77.60;100131.94;5052804;28;947;-63
2022/11/08 01:36:36;;;;;;;;;;;;;;;15.85;77.60;100135.50;5052577;28;920;-63
2022/11/08 01:39:01;;;;;;;;;;;;;;;15.86;77.63;100131.63;5052550;28;1898;-64
2022/11/08 01:41:26;;;;;;;;;;;;;;;15.85;77.45;100130.00;5052764;28;869;-63
2022/11/08 01:43:55;;;;;;;;;;;;;;;15.85;77.47;100135.50;5052685;28;972;-63
2022/11/08 01:46:20;;;;;;;;;;;;;;;15.85;77.29;100116.19;5052451;28;790;-63
2022/11/08 01:49:04;;;;;;;;;;;;;;;15.85;77.69;100130.00;5052558;28;1199;-63
2022/11/08 01:51:31;;;;;;;;;;;;;;;15.84;77.29;100109.84;5052640;28;1059;-63
2022/11/08 01:53:58;;;;;;;;;;;;;;;15.84;77.70;100098.81;5052605;28;1042;-63
2022/11/08 01:56:23;;;;;;;;;;;;;;;15.43;77.49;100035.81;5052313;28;856;-63
2022/11/08 01:58:50;;;;;;;;;;;;;;;15.84;77.71;100098.81;5052451;28;1894;-63
2022/11/08 02:01:15;;;;;;;;;;;;;;;15.84;77.40;100096.06;5052568;28;1050;-63
2022/11/08 02:03:41;;;;;;;;;;;;;;;15.83;77.15;100093.63;5053212;28;972;-63
2022/11/08 02:06:07;;;;;;;;;;;;;;;15.84;77.34;100090.53;5055890;28;805;-63
2022/11/08 02:08:36;;;;;;;;;;;;;;;15.84;77.29;100093.31;5055985;28;1274;-63
2022/11/08 02:11:02;;;;;;;;;;;;;;;15.85;77.90;100094.13;5056160;28;979;-63
2022/11/08 02:13:29;;;;;;;;;;;;;;;15.84;77.40;100101.56;5056178;28;864;-63
2022/11/08 02:15:54;;;;;;;;;;;;;;;15.83;77.48;100094.44;5055767;28;1320;-64
2022/11/08 02:18:21;;;;;;;;;;;;;;;15.85;77.26;100094.13;5055931;28;1961;-63
2022/11/08 02:20:46;;;;;;;;;;;;;;;15.83;77.87;100085.34;5055916;28;805;-63
2022/11/08 02:23:12;;;;;;;;;;;;;;;15.83;77.49;100088.09;5056006;28;863;-63
2022/11/08 02:25:37;;;;;;;;;;;;;;;15.83;77.48;100083.38;5055923;28;951;-63
2022/11/08 02:28:02;;;;;;;;;;;;;;;15.83;77.36;100079.81;5055616;28;804;-63
2022/11/08 02:30:31;;;;;;;;;;;;;;;15.84;77.89;100086.97;5055647;28;1196;-64
2022/11/08 02:32:56;;;;;;;;;;;;;;;15.84;77.50;100092.50;5055817;28;810;-63
2022/11/08 02:35:22;;;;;;;;;;;;;;;15.84;77.56;100089.72;5055641;28;987;-63
2022/11/08 02:37:47;;;;;;;;;;;;;;;15.83;77.62;100093.63;5055490;28;963;-63
2022/11/08 02:40:12;;;;;;;;;;;;;;;15.83;77.61;100085.34;5055590;28;1902;-63
2022/11/08 02:42:38;;;;;;;;;;;;;;;15.82;77.48;100076.25;5055515;28;786;-63
2022/11/08 02:45:06;;;;;;;;;;;;;;;15.83;77.55;100075.13;5055602;28;833;-64
2022/11/08 02:47:31;;;;;;;;;;;;;;;15.83;77.49;100088.91;5055279;28;988;-64
2022/11/08 02:49:56;;;;;;;;;;;;;;;15.84;77.40;100078.69;5055307;28;1216;-63
2022/11/08 02:52:22;;;;;;;;;;;;;;;15.84;77.48;100089.72;5055314;28;991;-64
2022/11/08 02:54:47;;;;;;;;;;;;;;;15.82;77.63;100073.50;5055380;28;888;-63
2022/11/08 02:57:12;;;;;;;;;;;;;;;15.83;77.63;100071.53;5055060;28;1014;-64
2022/11/08 02:59:37;;;;;;;;;;;;;;;15.82;77.62;100070.72;5055173;28;1981;-63
2022/11/08 03:02:02;;;;;;;;;;;;;;;15.83;77.56;100072.34;5055245;28;952;-63
2022/11/08 03:04:27;;;;;;;;;;;;;;;15.82;77.69;100072.69;5055035;28;916;-64
2022/11/08 03:06:53;;;;;;;;;;;;;;;15.83;77.67;100074.31;5054962;28;804;-63
2022/11/08 03:09:18;;;;;;;;;;;;;;;15.82;77.47;100067.19;5054971;28;1165;-63
2022/11/08 03:11:43;;;;;;;;;;;;;;;15.81;77.45;100071.06;5055079;28;794;-63
2022/11/08 03:14:08;;;;;;;;;;;;;;;15.81;77.54;100071.91;5054864;28;813;-63
2022/11/08 03:16:33;;;;;;;;;;;;;;;15.82;77.51;100072.69;5054610;28;876;-63
2022/11/08 03:18:59;;;;;;;;;;;;;;;15.82;77.55;100072.69;5053377;28;1901;-63
2022/11/08 03:21:24;;;;;;;;;;;;;;;15.82;77.48;100069.94;5054792;28;987;-64
2022/11/08 03:23:49;;;;;;;;;;;;;;;15.82;76.92;100069.94;5054639;28;1221;-63
2022/11/08 03:26:14;;;;;;;;;;;;;;;15.82;77.54;100072.69;5054565;28;789;-63
2022/11/08 03:28:39;;;;;;;;;;;;;;;15.82;77.72;100069.94;5054420;28;1216;-63
2022/11/08 03:31:04;;;;;;;;;;;;;;;15.81;77.29;100069.13;5053544;28;753;-64
2022/11/08 03:33:30;;;;;;;;;;;;;;;15.46;77.60;100015.06;5054670;28;905;-62
2022/11/08 03:35:55;;;;;;;;;;;;;;;15.81;77.70;100063.63;5054291;28;980;-63
2022/11/08 03:38:20;;;;;;;;;;;;;;;15.81;77.84;100062.81;5054410;28;1901;-63
2022/11/08 03:40:45;;;;;;;;;;;;;;;15.81;77.61;100060.03;5054555;28;956;-64
2022/11/08 03:43:10;;;;;;;;;;;;;;;15.81;77.43;100065.56;5054444;28;796;-63
2022/11/08 03:45:36;;;;;;;;;;;;;;;15.81;77.41;100071.06;5054405;28;864;-63
2022/11/08 03:48:01;;;;;;;;;;;;;;;15.82;77.44;100069.94;5054039;28;845;-63
2022/11/08 03:50:26;;;;;;;;;;;;;;;15.80;77.62;100064.75;5054288;28;1278;-63
2022/11/08 03:52:53;;;;;;;;;;;;;;;15.80;77.45;100064.75;5054395;28;870;-63
2022/11/08 03:55:19;;;;;;;;;;;;;;;15.40;77.43;100010.81;5054196;28;865;-63
2022/11/08 03:57:46;;;;;;;;;;;;;;;15.80;77.60;100069.44;5053862;28;988;-64
2022/11/08 04:00:12;;;;;;;;;;;;;;;15.81;77.42;100062.81;5053863;28;1894;-63
2022/11/08 04:02:37;;;;;;;;;;;;;;;15.80;77.40;100064.75;5053994;28;777;-63
2022/11/08 04:05:02;;;;;;;;;;;;;;;15.80;77.63;100064.75;5054091;28;817;-63
2022/11/08 04:07:27;;;;;;;;;;;;;;;15.79;77.33;100068.63;5053777;28;1149;-63
2022/11/08 04:09:53;;;;;;;;;;;;;;;15.80;77.43;100063.94;5053861;28;1199;-63
2022/11/08 04:15:14;;;;;;;;;;;;;;;15.80;77.43;100053.72;5053963;28;735;-63
2022/11/08 04:23:11;;;;;;;;;;;;;;;15.79;77.57;100052.09;5053871;28;686;-63
2022/11/08 04:25:36;;;;;;;;;;;;;;;15.80;77.59;100052.91;5053802;28;790;-63
2022/11/08 04:28:02;;;;;;;;;;;;;;;15.79;77.52;100048.50;5051403;28;1333;-63
2022/11/08 04:30:27;;;;;;;;;;;;;;;15.79;77.27;100048.50;5053869;28;1180;-63
2022/11/08 04:32:52;;;;;;;;;;;;;;;15.80;77.49;100052.91;5053481;28;995;-62
2022/11/08 04:35:17;;;;;;;;;;;;;;;15.78;77.40;100042.19;5053445;28;1066;-63
2022/11/08 04:37:42;;;;;;;;;;;;;;;15.78;77.40;100047.69;5053192;28;801;-62
2022/11/08 04:40:08;;;;;;;;;;;;;;;15.80;77.35;100041.84;5053169;28;1906;-63
2022/11/08 04:42:33;;;;;;;;;;;;;;;15.78;77.33;100035.84;5053481;28;1039;-63
2022/11/08 04:44:58;;;;;;;;;;;;;;;15.79;77.37;100035.53;5053350;28;762;-63
2022/11/08 04:47:23;;;;;;;;;;;;;;;15.79;77.38;100034.72;5052952;28;892;-63
2022/11/08 04:49:48;;;;;;;;;;;;;;;15.79;77.51;100029.19;5053263;28;1654;-62
2022/11/08 04:52:15;;;;;;;;;;;;;;;15.79;77.52;100026.44;5053317;28;782;-63
2022/11/08 04:54:43;;;;;;;;;;;;;;;15.80;77.50;100025.28;5053302;28;905;-62
2022/11/08 04:57:08;;;;;;;;;;;;;;;15.78;77.69;100017.34;5053034;28;884;-62
2022/11/08 04:59:33;;;;;;;;;;;;;;;15.78;77.31;100024.81;5051860;28;1948;-63
2022/11/08 05:01:58;;;;;;;;;;;;;;;15.78;77.50;100024.81;5053158;28;810;-62
2022/11/08 05:04:24;;;;;;;;;;;;;;;15.77;77.52;100025.94;5053068;28;943;-62
2022/11/08 05:06:49;;;;;;;;;;;;;;;15.78;77.68;100025.63;5052785;28;864;-63
2022/11/08 05:09:14;;;;;;;;;;;;;;;15.78;77.66;100016.53;5052995;28;1291;-63
2022/11/08 05:11:39;;;;;;;;;;;;;;;15.78;77.28;100022.03;5053009;28;987;-63
2022/11/08 05:14:04;;;;;;;;;;;;;;;15.79;77.63;100018.16;5053034;28;804;-63
2022/11/08 05:16:30;;;;;;;;;;;;;;;15.79;77.46;100023.66;5052650;28;881;-63
2022/11/08 05:18:56;;;;;;;;;;;;;;;15.77;77.66;100012.97;5052832;28;1963;-63
2022/11/08 05:24:08;;;;;;;;;;;;;;;15.80;77.46;100008.75;5053317;28;701;-63
2022/11/08 05:26:33;;;;;;;;;;;;;;;15.78;77.63;100000.78;5052667;28;951;-62
2022/11/08 05:28:59;;;;;;;;;;;;;;;15.80;77.70;100011.50;5052777;28;1212;-63
2022/11/08 05:31:24;;;;;;;;;;;;;;;15.80;77.24;100008.75;5052906;28;841;-63
2022/11/08 05:33:49;;;;;;;;;;;;;;;15.80;77.54;100003.22;5053194;28;863;-63
2022/11/08 05:36:15;;;;;;;;;;;;;;;15.79;77.51;100002.41;5052962;28;921;-63
2022/11/08 05:38:40;;;;;;;;;;;;;;;15.80;77.68;100003.22;5054777;28;1902;-62
2022/11/08 05:41:14;;;;;;;;;;;;;;;15.79;77.77;100009.88;5056807;28;987;-62
2022/11/08 05:43:39;;;;;;;;;;;;;;;15.80;78.02;100004.03;5056855;28;989;-62
2022/11/08 05:46:05;;;;;;;;;;;;;;;15.79;77.68;100002.41;5056443;28;920;-63
2022/11/08 05:48:30;;;;;;;;;;;;;;;15.79;77.97;99996.88;5056787;28;1227;-62
2022/11/08 05:50:55;;;;;;;;;;;;;;;15.80;77.78;100000.47;5056803;28;943;-63
2022/11/08 05:53:20;;;;;;;;;;;;;;;15.80;77.80;100003.22;5056536;28;1228;-63
2022/11/08 05:55:46;;;;;;;;;;;;;;;15.80;77.96;100003.22;5056350;28;802;-62
2022/11/08 05:58:11;;;;;;;;;;;;;;;15.81;77.53;100002.09;5055719;28;914;-63
2022/11/08 06:00:36;;;;;;;;;;;;;;;15.80;77.84;100004.03;5056329;28;1890;-62
2022/11/08 06:03:04;;;;;;;;;;;;;;;15.81;77.79;99994.63;5056414;28;900;-63
2022/11/08 06:05:30;;;;;;;;;;;;;;;15.80;77.14;99986.66;5056591;28;863;-62
2022/11/08 06:07:55;;;;;;;;;;;;;;;15.80;77.86;99984.72;5056125;28;979;-63
2022/11/08 06:10:20;;;;;;;;;;;;;;;15.82;77.94;99990.69;5055898;28;1254;-62
2022/11/08 06:12:45;;;;;;;;;;;;;;;15.82;77.64;99978.88;5056102;28;850;-63
2022/11/08 06:15:10;;;;;;;;;;;;;;;15.81;77.92;99978.06;5056154;28;995;-63
2022/11/08 06:17:36;;;;;;;;;;;;;;;15.82;77.86;99979.66;5055798;28;852;-63
2022/11/08 06:20:02;;;;;;;;;;;;;;;15.82;77.90;99985.19;5055918;28;1951;-63
2022/11/08 06:22:31;;;;;;;;;;;;;;;15.82;77.94;99985.19;5056071;28;912;-63
2022/11/08 06:24:56;;;;;;;;;;;;;;;15.83;77.95;99986.81;5056026;28;793;-62
2022/11/08 06:27:21;;;;;;;;;;;;;;;15.83;77.75;99983.22;5055759;28;821;-63
2022/11/08 06:29:46;;;;;;;;;;;;;;;15.83;77.66;99988.75;5055639;28;1287;-63
2022/11/08 06:32:12;;;;;;;;;;;;;;;15.83;78.21;99986.81;5055823;28;1046;-63
2022/11/08 06:34:37;;;;;;;;;;;;;;;15.82;77.87;99989.91;5055808;28;782;-62
2022/11/08 06:37:03;;;;;;;;;;;;;;;15.82;78.03;99990.69;5055562;28;801;-63
2022/11/08 06:39:28;;;;;;;;;;;;;;;15.83;78.27;99992.31;5055554;28;1901;-62
2022/11/08 06:41:54;;;;;;;;;;;;;;;15.82;78.09;99992.69;5055696;28;888;-63
2022/11/08 06:44:19;;;;;;;;;;;;;;;15.83;77.78;99991.50;5055561;28;996;-63
2022/11/08 06:46:44;;;;;;;;;;;;;;;15.84;78.08;99995.88;5055357;28;989;-63
2022/11/08 06:49:09;;;;;;;;;;;;;;;15.83;78.27;99997.03;5055115;28;1295;-63
2022/11/08 06:51:34;;;;;;;;;;;;;;;15.84;77.96;99990.38;5055357;28;968;-63
2022/11/08 06:54:02;;;;;;;;;;;;;;;15.84;77.93;99993.13;5055490;28;876;-63
2022/11/08 06:56:27;;;;;;;;;;;;;;;15.84;78.04;99982.91;5055183;28;880;-63
2022/11/08 06:58:52;;;;;;;;;;;;;;;15.84;78.14;99993.13;5055187;28;1960;-63
2022/11/08 07:01:17;;;;;;;;;;;;;;;15.85;77.97;99997.50;5055381;28;844;-63
2022/11/08 07:03:42;;;;;;;;;;;;;;;15.85;77.99;99994.75;5055440;28;856;-63
2022/11/08 07:06:08;;;;;;;;;;;;;;;15.84;78.21;99991.19;5054977;28;1066;-63
2022/11/08 07:08:33;;;;;;;;;;;;;;;15.84;78.43;99988.44;5055122;28;1225;-63
2022/11/08 07:10:58;;;;;;;;;;;;;;;15.85;78.30;99989.25;5055058;28;991;-63
2022/11/08 07:13:23;;;;;;;;;;;;;;;15.85;78.06;99987.28;5055033;28;1050;-63
2022/11/08 07:15:48;;;;;;;;;;;;;;;15.85;78.21;99990.06;5054747;28;1043;-64
2022/11/08 07:18:14;;;;;;;;;;;;;;;15.84;78.07;99985.66;5054979;28;769;-63
2022/11/08 07:20:40;;;;;;;;;;;;;;;15.85;78.34;99989.25;5054815;28;1929;-62
2022/11/08 07:23:06;;;;;;;;;;;;;;;15.84;78.33;99980.16;5055051;28;833;-62
2022/11/08 07:25:32;;;;;;;;;;;;;;;15.84;78.22;99974.63;5054945;28;864;-63
2022/11/08 07:28:01;;;;;;;;;;;;;;;15.85;78.37;99972.69;5054508;28;1032;-63
2022/11/08 07:30:27;;;;;;;;;;;;;;;15.84;78.09;99963.59;5054561;28;1481;-63
2022/11/08 07:32:53;;;;;;;;;;;;;;;15.85;78.07;99967.16;5054735;28;1004;-63
2022/11/08 07:35:18;;;;;;;;;;;;;;;15.84;78.44;99949.78;5054663;28;833;-63
2022/11/08 07:37:44;;;;;;;;;;;;;;;15.86;78.44;99946.72;5054387;28;987;-63
2022/11/08 07:40:09;;;;;;;;;;;;;;;15.85;78.34;99939.56;5054414;28;1959;-63
2022/11/08 07:42:35;;;;;;;;;;;;;;;15.85;78.37;99945.09;5054541;28;949;-63
2022/11/08 07:45:00;;;;;;;;;;;;;;;15.84;78.39;99952.53;5054411;28;1046;-62
2022/11/08 07:47:25;;;;;;;;;;;;;;;15.84;78.14;99960.81;5054473;28;987;-63
2022/11/08 07:49:50;;;;;;;;;;;;;;;15.86;78.06;99963.25;5054419;28;1696;-62
2022/11/08 07:52:15;;;;;;;;;;;;;;;15.85;78.28;99956.94;5054495;28;955;-63
2022/11/08 07:54:41;;;;;;;;;;;;;;;15.85;78.27;99959.69;5054287;28;984;-63
2022/11/08 07:57:06;;;;;;;;;;;;;;;15.85;78.33;99950.59;5053999;28;793;-63
2022/11/08 07:59:31;;;;;;;;;;;;;;;15.85;77.93;99951.41;5053977;28;1951;-63
2022/11/08 08:01:56;;;;;;;;;;;;;;;15.85;78.11;99936.81;5053140;28;943;-63
2022/11/08 08:04:21;;;;;;;;;;;;;;;15.85;78.64;99931.28;5054125;28;975;-63
2022/11/08 08:06:46;;;;;;;;;;;;;;;15.85;79.06;99921.06;5053742;28;877;-62
2022/11/08 08:09:12;;;;;;;;;;;;;;;15.85;78.24;99923.81;5053977;28;1219;-63
2022/11/08 08:11:37;;;;;;;;;;;;;;;15.86;78.24;99902.53;5054003;28;781;-63
2022/11/08 08:14:02;;;;;;;;;;;;;;;15.86;78.07;99910.81;5053882;28;1167;-63
2022/11/08 08:16:27;;;;;;;;;;;;;;;15.87;78.12;99907.75;5053828;28;785;-63
2022/11/08 08:18:52;;;;;;;;;;;;;;;15.86;78.41;99881.28;5053827;28;1910;-63
2022/11/08 08:21:17;;;;;;;;;;;;;;;15.87;78.21;99884.84;5053827;28;999;-63
2022/11/08 08:23:42;;;;;;;;;;;;;;;15.88;78.17;99903.03;5053931;28;801;-63
2022/11/08 08:26:08;;;;;;;;;;;;;;;15.88;78.47;99887.28;5053506;28;1047;-63
2022/11/08 08:28:33;;;;;;;;;;;;;;;15.87;78.05;99885.66;5053506;28;1311;-63
2022/11/08 08:30:58;;;;;;;;;;;;;;;15.88;78.30;99883.72;5053911;28;873;-63
2022/11/08 08:33:23;;;;;;;;;;;;;;;15.88;78.51;99884.53;5053603;28;988;-63
2022/11/08 08:35:50;;;;;;;;;;;;;;;15.89;78.38;99888.09;5053320;28;805;-63
2022/11/08 08:38:15;;;;;;;;;;;;;;;15.88;78.30;99892.00;5053489;28;1055;-63
2022/11/08 08:40:40;;;;;;;;;;;;;;;15.89;78.06;99885.34;5053328;28;1890;-63
2022/11/08 08:43:06;;;;;;;;;;;;;;;15.89;78.21;99888.09;5053401;28;923;-63
2022/11/08 08:45:32;;;;;;;;;;;;;;;15.89;78.35;99882.56;5053364;28;935;-63
2022/11/08 08:47:57;;;;;;;;;;;;;;;15.89;78.60;99888.09;5053176;28;1054;-63
2022/11/08 08:50:23;;;;;;;;;;;;;;;15.88;77.73;99873.50;5053291;28;1263;-64
2022/11/08 08:52:49;;;;;;;;;;;;;;;15.88;78.09;99886.47;5053303;28;996;-63
2022/11/08 08:55:14;;;;;;;;;;;;;;;15.89;78.13;99879.81;5053232;28;658;-62
2022/11/08 08:57:46;;;;;;;;;;;;;;;15.91;78.35;99865.69;5052952;28;802;-63
2022/11/08 09:00:12;;;;;;;;;;;;;;;15.88;78.36;99879.00;5053084;28;1961;-63
2022/11/08 09:02:37;;;;;;;;;;;;;;;15.90;77.81;99884.19;5053188;28;1082;-63
2022/11/08 09:05:02;;;;;;;;;;;;;;;15.89;78.11;99879.81;5053221;28;836;-62
2022/11/08 09:07:27;;;;;;;;;;;;;;;15.89;78.49;99882.56;5052939;28;909;-63
2022/11/08 09:09:52;;;;;;;;;;;;;;;15.88;78.11;99886.47;5053066;28;1278;-63
2022/11/08 09:12:17;;;;;;;;;;;;;;;15.88;78.27;99892.81;5052708;28;822;-63
2022/11/08 09:14:43;;;;;;;;;;;;;;;15.89;77.85;99891.66;5052988;28;980;-63
2022/11/08 09:17:08;;;;;;;;;;;;;;;15.91;78.23;99896.06;5052955;28;964;-63
2022/11/08 09:19:33;;;;;;;;;;;;;;;15.89;78.20;99877.06;5052890;28;1890;-63
2022/11/08 09:21:58;;;;;;;;;;;;;;;15.89;78.20;99880.63;5053068;28;908;-63
2022/11/08 09:24:23;;;;;;;;;;;;;;;15.89;78.18;99886.16;5052975;28;972;-63
2022/11/08 09:26:48;;;;;;;;;;;;;;;15.89;78.50;99891.66;5052799;28;848;-63
2022/11/08 09:29:14;;;;;;;;;;;;;;;15.88;78.31;99887.28;5052665;28;1219;-63
2022/11/08 09:31:39;;;;;;;;;;;;;;;15.91;78.12;99882.25;5052867;28;885;-63
2022/11/08 09:34:04;;;;;;;;;;;;;;;15.91;78.27;99879.50;5052972;28;834;-63
2022/11/08 09:36:29;;;;;;;;;;;;;;;15.91;78.30;99894.06;5052637;28;1039;-63
2022/11/08 09:38:54;;;;;;;;;;;;;;;15.91;78.01;99887.78;5052719;28;1902;-63
2022/11/08 09:41:31;;;;;;;;;;;;;;;15.91;78.41;99883.03;5052786;28;679;-63
2022/11/08 09:44:22;;;;;;;;;;;;;;;15.91;78.33;99896.06;5053185;28;813;-63
2022/11/08 09:46:49;;;;;;;;;;;;;;;15.91;78.23;99883.03;5059117;28;1292;-62
2022/11/08 09:49:17;;;;;;;;;;;;;;;15.91;77.97;99891.31;5052770;28;1207;-63
2022/11/08 09:51:42;;;;;;;;;;;;;;;15.91;78.25;99885.00;5052833;28;846;-63
2022/11/08 09:54:15;;;;;;;;;;;;;;;15.91;78.15;99882.25;5052588;28;1075;-63
2022/11/08 09:56:40;;;;;;;;;;;;;;;15.91;78.16;99885.00;5052619;28;814;-63
2022/11/08 09:59:16;;;;;;;;;;;;;;;15.89;77.94;99875.09;5052617;28;1961;-62
2022/11/08 10:01:41;;;;;;;;;;;;;;;15.89;78.19;99879.81;5052655;28;1039;-63
2022/11/08 10:04:21;;;;;;;;;;;;;;;15.89;78.07;99880.63;5052763;28;719;-63
2022/11/08 10:07:03;;;;;;;;;;;;;;;15.92;78.09;99878.31;5052338;28;876;-63
2022/11/08 10:09:58;;;;;;;;;;;;;;;15.92;78.03;99872.81;5052539;28;1216;-63
2022/11/08 10:12:35;;;;;;;;;;;;;;;15.91;77.97;99863.72;5056220;28;1501;-63
2022/11/08 10:15:03;;;;;;;;;;;;;;;15.89;78.12;99852.22;5052467;28;881;-63
2022/11/08 10:17:47;;;;;;;;;;;;;;;15.91;78.47;99849.13;5052255;28;893;-63
2022/11/08 10:20:25;;;;;;;;;;;;;;;15.92;77.76;99850.72;5052330;28;2275;-63
2022/11/08 10:23:02;;;;;;;;;;;;;;;15.92;77.96;99846.00;5052512;28;856;-63
2022/11/08 10:25:45;;;;;;;;;;;;;;;15.89;77.78;99842.00;5053988;28;936;-63
2022/11/08 10:28:20;;;;;;;;;;;;;;;15.92;78.18;99845.19;5056109;28;972;-63
2022/11/08 10:30:47;;;;;;;;;;;;;;;15.91;78.01;99849.13;5056310;28;1313;-63
2022/11/08 10:33:31;;;;;;;;;;;;;;;15.91;77.98;99841.63;5055904;28;1000;-63
2022/11/08 10:36:09;;;;;;;;;;;;;;;15.91;77.98;99838.88;5055600;28;814;-62
2022/11/08 10:38:43;;;;;;;;;;;;;;;15.91;78.08;99838.09;5055820;28;1898;-63
2022/11/08 10:41:16;;;;;;;;;;;;;;;15.91;77.84;99836.13;5055863;28;821;-63
2022/11/08 10:43:41;;;;;;;;;;;;;;;15.91;78.24;99841.63;5055751;28;988;-63
2022/11/08 10:46:23;;;;;;;;;;;;;;;15.92;78.32;99832.22;5055244;28;969;-63
2022/11/08 10:48:49;;;;;;;;;;;;;;;15.92;78.29;99831.41;5055580;28;1264;-63
2022/11/08 10:51:14;;;;;;;;;;;;;;;15.92;78.02;99836.91;5055697;28;872;-63
2022/11/08 10:53:43;;;;;;;;;;;;;;;15.91;78.15;99832.56;5055502;28;913;-63
2022/11/08 10:56:08;;;;;;;;;;;;;;;15.92;78.15;99831.41;5055305;28;896;-63
2022/11/08 10:58:37;;;;;;;;;;;;;;;15.91;78.32;99825.06;5055169;28;1961;-63
2022/11/08 11:01:05;;;;;;;;;;;;;;;15.91;78.26;99819.56;5055544;28;884;-62
2022/11/08 11:03:30;;;;;;;;;;;;;;;15.91;77.67;99808.50;5055321;28;1128;-64
2022/11/08 11:05:58;;;;;;;;;;;;;;;15.92;78.23;99815.66;5055129;28;984;-63
2022/11/08 11:08:24;;;;;;;;;;;;;;;15.92;77.99;99812.09;5055539;28;1196;-63
2022/11/08 11:10:49;;;;;;;;;;;;;;;15.92;77.77;99812.91;5055208;28;834;-62
2022/11/08 11:13:25;;;;;;;;;;;;;;;15.92;77.98;99812.09;5055052;28;821;-63
2022/11/08 11:15:57;;;;;;;;;;;;;;;15.92;77.96;99818.41;5054895;28;829;-63
2022/11/08 11:18:28;;;;;;;;;;;;;;;15.93;78.02;99819.22;5054937;28;1190;-63
2022/11/08 11:20:57;;;;;;;;;;;;;;;15.92;77.98;99812.09;5055301;28;1951;-63
2022/11/08 11:23:22;;;;;;;;;;;;;;;15.93;77.73;99816.47;5054927;28;817;-63
2022/11/08 11:25:51;;;;;;;;;;;;;;;15.92;78.22;99812.91;5054594;28;984;-62
2022/11/08 11:28:16;;;;;;;;;;;;;;;15.93;78.23;99814.50;5055012;28;924;-63
2022/11/08 11:30:46;;;;;;;;;;;;;;;15.92;77.99;99807.38;5054684;28;1142;-63
2022/11/08 11:33:22;;;;;;;;;;;;;;;15.92;78.29;99799.09;5054828;28;911;-63
2022/11/08 11:35:50;;;;;;;;;;;;;;;15.91;78.24;99797.47;5054371;28;826;-63
2022/11/08 11:38:23;;;;;;;;;;;;;;;15.93;77.94;99792.44;5054567;28;967;-63
2022/11/08 11:40:49;;;;;;;;;;;;;;;15.93;77.60;99786.91;5054567;28;1902;-63
2022/11/08 11:43:17;;;;;;;;;;;;;;;15.94;78.17;99793.25;5054668;28;868;-63
2022/11/08 11:46:02;;;;;;;;;;;;;;;15.94;77.74;99779.44;5054477;28;893;-62
2022/11/08 11:48:28;;;;;;;;;;;;;;;15.94;77.70;99771.97;5054375;28;1200;-63
2022/11/08 11:50:54;;;;;;;;;;;;;;;15.93;77.77;99770.34;5054293;28;857;-63
2022/11/08 11:53:27;;;;;;;;;;;;;;;15.94;78.02;99765.66;5054413;28;825;-63
2022/11/08 11:56:15;;;;;;;;;;;;;;;15.60;77.69;99714.22;5054196;28;802;-63
2022/11/08 11:58:43;;;;;;;;;;;;;;;15.94;77.71;99751.84;5062287;28;1889;-63
2022/11/08 12:01:13;;;;;;;;;;;;;;;15.95;78.10;99756.22;5054145;28;818;-62
2022/11/08 12:03:50;;;;;;;;;;;;;;;15.95;77.88;99756.22;5054333;28;905;-63
2022/11/08 12:06:25;;;;;;;;;;;;;;;15.95;77.76;99746.00;5053836;28;761;-63
2022/11/08 12:08:59;;;;;;;;;;;;;;;15.94;78.03;99736.09;5054080;28;1285;-64
2022/11/08 12:11:30;;;;;;;;;;;;;;;15.94;77.88;99738.84;5053999;28;872;-63
2022/11/08 12:14:03;;;;;;;;;;;;;;;15.95;77.74;99740.47;5054387;28;889;-63
2022/11/08 12:16:36;;;;;;;;;;;;;;;15.94;78.07;99727.81;5053768;28;818;-63
2022/11/08 12:19:02;;;;;;;;;;;;;;;15.93;77.68;99726.19;5053782;28;1969;-63
2022/11/08 12:21:30;;;;;;;;;;;;;;;15.95;77.37;99720.34;5053856;28;1016;-62
2022/11/08 12:24:13;;;;;;;;;;;;;;;15.95;78.01;99712.88;5053781;28;987;-63
2022/11/08 12:26:55;;;;;;;;;;;;;;;15.95;77.84;99707.34;5053478;28;971;-63
2022/11/08 12:29:26;;;;;;;;;;;;;;;15.94;77.95;99711.25;5053499;28;1432;-63
2022/11/08 12:32:01;;;;;;;;;;;;;;;15.95;77.60;99712.88;5053638;28;802;-63
2022/11/08 12:34:37;;;;;;;;;;;;;;;15.96;77.68;99716.44;5053568;28;829;-63
2022/11/08 12:37:03;;;;;;;;;;;;;;;15.96;78.01;99717.25;5053342;28;897;-63
2022/11/08 12:39:45;;;;;;;;;;;;;;;15.95;77.91;99723.91;5053439;28;1969;-63
2022/11/08 12:42:30;;;;;;;;;;;;;;;15.95;78.08;99725.88;5053632;28;833;-63
2022/11/08 12:45:14;;;;;;;;;;;;;;;15.96;77.98;99727.50;5053392;28;945;-63
2022/11/08 12:47:45;;;;;;;;;;;;;;;15.96;77.56;99733.00;5052706;28;964;-63
2022/11/08 12:50:20;;;;;;;;;;;;;;;15.96;77.89;99730.25;5053346;28;1185;-63
2022/11/08 12:52:54;;;;;;;;;;;;;;;15.97;77.72;99731.88;5053327;28;952;-63
2022/11/08 12:55:24;;;;;;;;;;;;;;;15.96;77.67;99730.25;5053320;28;805;-63
2022/11/08 12:57:51;;;;;;;;;;;;;;;15.97;77.64;99724.41;5053065;28;1047;-63
2022/11/08 13:00:17;;;;;;;;;;;;;;;15.96;77.74;99725.53;5053167;28;1955;-63
2022/11/08 13:02:44;;;;;;;;;;;;;;;15.96;77.91;99717.25;5053332;28;853;-63
2022/11/08 13:05:22;;;;;;;;;;;;;;;15.96;78.04;99699.88;5053147;28;682;-63
2022/11/08 13:08:07;;;;;;;;;;;;;;;15.96;78.11;99702.66;5052842;28;869;-63
2022/11/08 13:10:46;;;;;;;;;;;;;;;15.96;77.81;99703.44;5055704;28;1261;-63
2022/11/08 13:13:17;;;;;;;;;;;;;;;15.97;77.71;99705.06;5053527;28;672;-63
2022/11/08 13:16:01;;;;;;;;;;;;;;;15.97;77.88;99695.97;5053035;28;888;-63
2022/11/08 13:18:33;;;;;;;;;;;;;;;15.97;78.00;99694.03;5053031;28;1257;-63
2022/11/08 13:20:58;;;;;;;;;;;;;;;15.97;77.79;99687.69;5052944;28;1882;-63
2022/11/08 13:23:30;;;;;;;;;;;;;;;15.97;77.72;99685.75;5053122;28;890;-63